KTUSKSDL

Guest
Details From KTUS - Tucson Intl
To KSDL - SCOTTSDALE
Flight Number -
Tags decoded
Created
Modified
Stats Distance 107 nm / 199 km
Max Altitude 0 ft / 0 m
Waypoints 7
Social Downloads 1
Likes 0
Share VATSIM

Download

Looking for another format? Having issues loading an existing format? Contact us
Advertisement - Login to hide

Notes

Requested: KTUS PIMMA PICLI TOTEC RIYCO PXR KSDL

Route

KTUS PIMMA PICLI TOTEC RIYCO PXR KSDL

ID Type Via Altitude Latitude Longitude Leg Dist Tot Dist Heading (true) Name
O KTUS APT - 0 ft / 0 m 32.11686˚ -110.94215˚ - 0 nm - Tucson Intl
PIMMA FIX - 0 ft / 0 m 32.35106˚ -111.16747˚ 18 nm 18 nm 321° / 321° -
PICLI FIX - 0 ft / 0 m 32.66322˚ -111.47833˚ 24 nm 42 nm 320° / 320° -
TOTEC FIX - 0 ft / 0 m 32.82662˚ -111.64220˚ 12 nm 55 nm 320° / 320° -
RIYCO FIX - 0 ft / 0 m 33.03447˚ -111.75408˚ 13 nm 69 nm 336° / 336° -
PXR VOR - 0 ft / 0 m 33.43303˚ -111.97019˚ 26 nm 95 nm 336° / 336° PHOENIX VORTAC
O KSDL APT - 0 ft / 0 m 33.62288˚ -111.91053˚ 11 nm 107 nm 15° / 15° SCOTTSDALE

Altitude Profile

Advertisement - Login to hide

KTUS

Details ICAO KTUS (TUS)
Name Tucson Intl
Region United States
Timezone America/Phoenix (UTC-7.0)
Stats Elevation 2,643 ft / 806 m (AMSL)
Location 32.116858° -110.942155°
Runways 3
Magnetic Variation 9.789° E

METAR

KTUS 111853Z 12012KT 10SM CLR 21/M08 A3027 RMK AO2 SLP220 T02061078

Decode

TAF

TAF KTUS 111720Z 1118/1218 15011KT P6SM SCT120 BKN200 FM112100 08005KT P6SM SCT120 BKN200 FM120900 14009KT P6SM BKN200 FM121600 15015G22KT P6SM BKN200

Decode

Departure Runways

ID Width Length Bearing (true) Bearing (mag) Surface Threshold Offset Overrun Length
03 150 ft / 46 m 7,004 ft / 2,135 m 44.90° 35.11° Asphalt 841 ft / 256 m 0 ft / 0 m
11L 150 ft / 46 m 11,000 ft / 3,353 m 135.16° 125.37° Asphalt 0 ft / 0 m 3,257 ft / 993 m
11R 75 ft / 23 m 8,412 ft / 2,564 m 135.16° 125.37° Asphalt 1,410 ft / 430 m 0 ft / 0 m
21 150 ft / 46 m 7,004 ft / 2,135 m 224.91° 215.12° Asphalt 0 ft / 0 m 0 ft / 0 m
29L 75 ft / 23 m 8,412 ft / 2,564 m 315.17° 305.38° Asphalt 0 ft / 0 m 0 ft / 0 m
29R 150 ft / 46 m 11,000 ft / 3,353 m 315.17° 305.38° Asphalt 0 ft / 0 m 1,000 ft / 305 m

KSDL

Details ICAO KSDL (ZSY)
Name SCOTTSDALE
Region United States
Timezone America/Phoenix (UTC-7.0)
Stats Elevation 1,510 ft / 460 m (AMSL)
Location 33.622881° -111.910535°
Runways 1
Magnetic Variation 10.314° E

METAR

KSDL 111853Z VRB04KT 10SM CLR 23/M11 A3024 RMK AO2 SLP224 T02281111

Decode

TAF

TAF KSDL 111720Z 1118/1218 VRB05KT P6SM BKN250

Decode

Destination Runways

ID Width Length Bearing (true) Bearing (mag) Surface Threshold Offset Overrun Length
03 100 ft / 30 m 8,253 ft / 2,516 m 43.82° 33.51° Asphalt 740 ft / 226 m 0 ft / 0 m
21 100 ft / 30 m 8,253 ft / 2,516 m 223.83° 213.52° Asphalt 400 ft / 122 m 0 ft / 0 m

Popular Alternatives